Time;durP1;ratioP1;P1;durP2;ratioP2;P2;SDS_P1;SDS_P2;PMS_P1;PMS_P2;Temp;Humidity;BMP_temperature;BMP_pressure;BME280_temperature;BME280_humidity;BME280_pressure;Samples;Min_cycle;Max_cycle;Signal;HPM_P1;HPM_P2
2021/06/23 00:02:13;;;;;;;29.92;14.93;;;;;;;13.14;83.24;101632.19;5048692;28;20052;-66
2021/06/23 00:04:38;;;;;;;23.08;15.05;;;;;;;13.11;83.53;101632.50;5047469;28;20044;-66
2021/06/23 00:07:03;;;;;;;29.80;15.02;;;;;;;13.09;83.97;101642.25;5064427;28;20035;-66
2021/06/23 00:09:29;;;;;;;24.80;14.80;;;;;;;13.17;83.91;101642.31;5064409;28;20067;-66
2021/06/23 00:11:57;;;;;;;27.77;14.70;;;;;;;13.17;82.71;101644.91;5065220;28;20032;-66
2021/06/23 00:14:23;;;;;;;23.08;13.68;;;;;;;13.15;83.22;101646.88;5062995;28;20036;-66
2021/06/23 00:16:48;;;;;;;27.63;14.23;;;;;;;13.15;83.52;101646.88;5046644;28;20394;-66
2021/06/23 00:19:14;;;;;;;22.90;14.57;;;;;;;13.23;82.72;101652.94;5064266;28;20071;-66
2021/06/23 00:21:40;;;;;;;23.50;14.02;;;;;;;13.15;83.16;101655.47;5066446;28;20282;-66
2021/06/23 00:24:05;;;;;;;31.80;15.25;;;;;;;13.10;83.13;101657.72;5065661;28;20044;-66
2021/06/23 00:26:35;;;;;;;28.77;15.13;;;;;;;13.14;82.79;101653.03;5062477;28;20222;-66
2021/06/23 00:29:02;;;;;;;25.13;14.55;;;;;;;13.09;82.73;101650.06;5066179;28;20040;-66
2021/06/23 00:31:28;;;;;;;27.20;14.57;;;;;;;13.13;82.32;101651.38;5063057;28;20028;-66
2021/06/23 00:33:56;;;;;;;22.83;15.70;;;;;;;12.98;82.09;101654.53;5065754;28;20036;-66
2021/06/23 00:36:21;;;;;;;26.35;14.35;;;;;;;12.99;82.42;101655.34;5034881;28;20098;-66
2021/06/23 00:38:46;;;;;;;25.67;14.25;;;;;;;13.05;82.20;101660.78;5059373;28;20032;-66
2021/06/23 00:41:18;;;;;;;27.45;15.27;;;;;;;12.96;82.59;101663.44;5043433;28;20056;-66
2021/06/23 00:43:46;;;;;;;24.67;15.48;;;;;;;12.96;82.51;101660.84;5048285;28;20104;-66
2021/06/23 00:46:13;;;;;;;33.50;16.42;;;;;;;12.83;82.33;101658.66;5061578;28;20024;-66
2021/06/23 00:48:40;;;;;;;29.08;15.15;;;;;;;12.79;83.00;101668.53;5064988;28;20044;-66
2021/06/23 00:51:07;;;;;;;24.75;14.50;;;;;;;12.80;82.45;101666.75;5045726;28;20032;-66
2021/06/23 00:53:43;;;;;;;32.13;15.48;;;;;;;12.82;82.37;101673.44;5066277;28;20039;-66
2021/06/23 00:56:09;;;;;;;26.48;14.48;;;;;;;12.80;82.38;101664.97;5044082;28;20024;-66
2021/06/23 00:58:35;;;;;;;26.08;14.10;;;;;;;12.75;82.64;101668.97;5030830;28;20035;-66
2021/06/23 01:01:04;;;;;;;30.65;15.05;;;;;;;12.77;82.89;101665.28;5046073;28;20039;-66
2021/06/23 01:03:30;;;;;;;31.77;15.43;;;;;;;12.76;82.75;101666.22;5030727;28;20041;-66
2021/06/23 01:06:06;;;;;;;25.85;14.18;;;;;;;12.73;83.31;101673.50;5044929;28;20036;-66
2021/06/23 01:08:32;;;;;;;21.35;14.77;;;;;;;12.79;82.81;101667.69;5046961;28;20033;-66
2021/06/23 01:10:57;;;;;;;23.23;14.27;;;;;;;12.79;82.85;101668.53;5043719;28;20032;-66
2021/06/23 01:13:35;;;;;;;36.33;14.98;;;;;;;12.74;83.38;101664.75;5048482;28;20470;-66
2021/06/23 01:16:05;;;;;;;24.48;14.30;;;;;;;12.72;83.02;101664.09;5064944;28;20024;-66
2021/06/23 01:18:35;;;;;;;28.58;13.82;;;;;;;12.78;82.86;101663.47;5064602;28;20074;-66
2021/06/23 01:21:02;;;;;;;24.15;14.77;;;;;;;12.75;83.23;101659.41;5046134;28;20138;-66
2021/06/23 01:23:28;;;;;;;25.42;13.57;;;;;;;12.73;83.58;101666.50;5027531;28;20033;-66
2021/06/23 01:25:53;;;;;;;29.85;14.50;;;;;;;12.73;83.70;101663.91;5047360;28;20031;-66
2021/06/23 01:28:19;;;;;;;23.92;14.38;;;;;;;12.76;83.40;101666.22;5064609;28;20035;-66
2021/06/23 01:30:58;;;;;;;25.23;15.38;;;;;;;12.83;83.52;101666.47;5042950;28;20083;-66
2021/06/23 01:33:29;;;;;;;32.90;15.05;;;;;;;12.79;83.60;101657.28;5040714;28;20091;-66
2021/06/23 01:35:55;;;;;;;25.00;14.68;;;;;;;12.82;83.22;101657.81;5061886;28;20036;-66
2021/06/23 01:38:21;;;;;;;33.88;14.80;;;;;;;12.92;82.73;101656.91;5065053;28;20118;-66
2021/06/23 01:40:46;;;;;;;24.55;14.60;;;;;;;12.88;82.89;101660.78;5064055;28;20063;-66
2021/06/23 01:43:12;;;;;;;24.40;13.45;;;;;;;12.82;83.29;101668.22;5046884;28;20038;-66
2021/06/23 01:45:38;;;;;;;25.45;14.10;;;;;;;12.82;82.37;101668.22;5060516;28;20094;-66
2021/06/23 01:48:05;;;;;;;29.05;14.10;;;;;;;12.78;81.90;101666.91;5063948;28;20517;-66
2021/06/23 01:50:33;;;;;;;23.77;12.95;;;;;;;12.75;82.20;101666.38;5044885;28;20298;-66
2021/06/23 01:53:00;;;;;;;25.63;13.00;;;;;;;12.77;81.97;101667.03;5047305;28;20139;-66
2021/06/23 01:55:27;;;;;;;24.67;14.30;;;;;;;12.79;82.30;101672.91;5064344;28;20730;-66
2021/06/23 01:58:07;;;;;;;19.75;13.45;;;;;;;12.71;81.93;101676.25;5028725;28;20119;-66
2021/06/23 02:01:09;;;;;;;24.00;13.38;;;;;;;12.71;82.14;101670.25;5061443;28;20428;-66
2021/06/23 02:03:53;;;;;;;20.75;11.73;;;;;;;12.72;81.50;101674.50;5038188;28;20074;-66
2021/06/23 02:06:41;;;;;;;24.20;12.70;;;;;;;12.73;81.41;101673.50;5060678;28;20024;-66
2021/06/23 02:09:22;;;;;;;32.67;13.52;;;;;;;12.68;81.67;101679.19;5050803;28;20487;-66
2021/06/23 02:12:24;;;;;;;21.17;12.10;;;;;;;12.70;82.03;101681.63;5045203;28;20127;-66
2021/06/23 02:14:59;;;;;;;25.88;11.98;;;;;;;12.69;81.88;101682.59;5043830;28;20033;-66
2021/06/23 02:17:31;;;;;;;24.83;13.35;;;;;;;12.63;81.54;101687.41;5061588;28;20040;-66
2021/06/23 02:20:11;;;;;;;26.08;11.90;;;;;;;12.63;81.35;101679.59;5046454;28;20037;-66
2021/06/23 02:22:38;;;;;;;20.30;11.93;;;;;;;12.68;81.62;101673.97;5049870;28;20061;-66
2021/06/23 02:25:13;;;;;;;19.90;11.32;;;;;;;12.62;82.27;101680.59;5039303;28;20043;-66
2021/06/23 02:28:07;;;;;;;26.35;12.18;;;;;;;12.66;81.86;101679.31;5048821;28;20078;-66
2021/06/23 02:30:35;;;;;;;29.52;12.60;;;;;;;12.62;82.22;101690.16;5031544;28;20056;-66
2021/06/23 02:33:01;;;;;;;18.33;11.95;;;;;;;12.63;81.70;101689.19;5047806;28;20036;-66
2021/06/23 02:35:37;;;;;;;21.75;11.90;;;;;;;12.55;81.94;101689.94;5042477;28;20062;-66
2021/06/23 02:38:12;;;;;;;27.63;12.73;;;;;;;12.50;82.33;101692.16;5049787;28;20040;-66
2021/06/23 02:40:37;;;;;;;25.67;12.20;;;;;;;12.56;82.14;101686.34;5048818;28;20036;-66
2021/06/23 02:43:06;;;;;;;29.08;13.10;;;;;;;12.53;82.12;101691.88;5068226;28;20110;-66
2021/06/23 02:45:32;;;;;;;32.97;12.02;;;;;;;12.57;81.83;101698.41;5066712;28;20098;-66
2021/06/23 02:47:58;;;;;;;25.17;11.90;;;;;;;12.51;82.15;101700.78;5067228;28;20114;-66
2021/06/23 02:51:06;;;;;;;24.33;11.85;;;;;;;12.50;82.33;101699.16;5048046;28;20017;-66
2021/06/23 02:53:34;;;;;;;28.63;11.80;;;;;;;12.51;81.77;101693.81;5066812;28;20693;-66
2021/06/23 02:56:01;;;;;;;30.08;13.07;;;;;;;12.46;81.29;101696.03;5062809;28;20398;-66
2021/06/23 02:58:42;;;;;;;20.25;11.82;;;;;;;12.40;81.45;101689.63;5037565;28;20028;-66
2021/06/23 03:01:09;;;;;;;24.17;11.63;;;;;;;12.40;81.99;101702.63;5047604;28;20027;-66
2021/06/23 03:03:42;;;;;;;24.45;13.02;;;;;;;12.37;82.36;101700.31;5037726;28;20036;-66
2021/06/23 03:06:08;;;;;;;32.67;13.05;;;;;;;12.41;82.21;101698.22;5065635;28;20020;-66
2021/06/23 03:08:35;;;;;;;22.27;12.10;;;;;;;12.42;82.45;101699.88;5046521;28;20097;-66
2021/06/23 03:11:02;;;;;;;18.80;12.48;;;;;;;12.44;82.26;101706.56;5063555;28;20038;-66
2021/06/23 03:14:00;;;;;;;24.85;13.50;;;;;;;12.46;82.26;101707.22;5064807;28;20041;-66
2021/06/23 03:16:39;;;;;;;23.65;12.27;;;;;;;12.47;82.37;101705.47;5046777;28;20035;-66
2021/06/23 03:19:05;;;;;;;33.22;13.10;;;;;;;12.47;82.15;101702.88;5047329;28;20040;-66
2021/06/23 03:21:32;;;;;;;21.23;11.52;;;;;;;12.51;81.65;101711.19;5048520;28;20093;-66
2021/06/23 03:23:59;;;;;;;23.33;13.02;;;;;;;12.44;81.50;101714.38;5065590;28;20032;-66
2021/06/23 03:26:29;;;;;;;20.98;12.32;;;;;;;12.41;81.50;101706.88;5062756;28;20037;-66
2021/06/23 03:28:57;;;;;;;29.05;12.70;;;;;;;12.49;81.57;101713.09;5068353;28;20071;-66
2021/06/23 03:31:23;;;;;;;29.65;12.80;;;;;;;12.52;81.01;101723.22;5062266;28;20114;-66
2021/06/23 03:33:51;;;;;;;21.15;13.27;;;;;;;12.48;81.28;101722.69;5046034;28;20086;-66
2021/06/23 03:36:36;;;;;;;22.35;13.25;;;;;;;12.51;81.71;101722.41;5063685;28;20050;-66
2021/06/23 03:39:01;;;;;;;21.13;12.32;;;;;;;12.55;81.49;101721.16;5049249;28;20016;-66
2021/06/23 03:41:36;;;;;;;24.05;12.60;;;;;;;12.49;81.71;101718.31;5046999;28;20496;-66
2021/06/23 03:44:03;;;;;;;22.35;13.25;;;;;;;12.44;82.06;101719.56;5047859;28;20557;-66
2021/06/23 03:46:32;;;;;;;21.05;12.55;;;;;;;12.52;81.63;101720.63;5045712;28;20036;-66
2021/06/23 03:48:59;;;;;;;27.48;13.60;;;;;;;12.43;81.59;101730.97;5067262;28;20110;-66
2021/06/23 03:51:27;;;;;;;22.80;13.25;;;;;;;12.42;81.62;101718.09;5047250;28;20024;-66
2021/06/23 03:53:52;;;;;;;25.63;12.93;;;;;;;12.41;81.33;101717.28;5048678;28;20028;-66
2021/06/23 03:56:18;;;;;;;27.20;12.95;;;;;;;12.39;81.85;101715.78;5028434;28;20548;-66
2021/06/23 03:58:44;;;;;;;35.45;14.77;;;;;;;12.36;81.88;101729.91;5066179;28;20563;-66
2021/06/23 04:01:11;;;;;;;29.92;13.07;;;;;;;12.42;81.19;101723.28;5043716;28;20029;-66
2021/06/23 04:04:02;;;;;;;25.60;13.60;;;;;;;12.44;81.20;101727.38;5062467;28;20041;-66
2021/06/23 04:06:54;;;;;;;27.00;13.30;;;;;;;12.34;81.40;101724.03;5025449;28;20044;-66
2021/06/23 04:09:19;;;;;;;28.30;13.23;;;;;;;12.41;81.18;101726.84;5048759;28;20037;-66
2021/06/23 04:11:51;;;;;;;29.10;12.57;;;;;;;12.42;81.30;101721.50;5044800;28;20504;-66
2021/06/23 04:14:17;;;;;;;25.63;12.98;;;;;;;12.40;81.45;101723.44;5047916;28;20291;-66
2021/06/23 04:16:43;;;;;;;29.05;12.85;;;;;;;12.43;81.37;101724.91;5045532;28;20199;-66
2021/06/23 04:19:08;;;;;;;27.98;13.15;;;;;;;12.51;81.17;101721.59;5040703;28;20086;-66
2021/06/23 04:21:42;;;;;;;25.35;13.82;;;;;;;12.55;81.06;101720.34;5045488;28;20024;-66
2021/06/23 04:24:11;;;;;;;21.20;12.73;;;;;;;12.55;81.33;101723.75;5047798;28;20056;-66
2021/06/23 04:26:41;;;;;;;24.95;13.15;;;;;;;12.48;81.41;101717.50;5060101;28;20032;-66
2021/06/23 04:29:08;;;;;;;23.13;11.45;;;;;;;12.51;81.66;101727.63;5045162;28;20042;-66
2021/06/23 04:31:33;;;;;;;23.17;12.52;;;;;;;12.54;81.83;101723.91;5045743;28;20408;-65
2021/06/23 04:33:59;;;;;;;27.05;13.52;;;;;;;12.53;81.10;101728.28;5065729;28;20032;-66
2021/06/23 04:36:25;;;;;;;33.72;12.85;;;;;;;12.61;81.03;101728.38;5048896;28;20024;-66
2021/06/23 04:38:50;;;;;;;20.38;12.27;;;;;;;12.68;80.88;101725.16;5042866;28;20032;-66
2021/06/23 04:41:16;;;;;;;23.65;13.23;;;;;;;12.59;80.85;101730.31;5047007;28;20024;-66
2021/06/23 04:43:42;;;;;;;30.45;12.30;;;;;;;12.55;80.32;101733.34;5065959;28;20554;-65
2021/06/23 04:46:08;;;;;;;17.45;11.05;;;;;;;12.50;80.90;101735.56;5028493;28;20028;-65
2021/06/23 04:48:33;;;;;;;23.38;12.18;;;;;;;12.58;80.82;101731.28;5064946;28;20040;-65
2021/06/23 04:51:00;;;;;;;20.55;11.77;;;;;;;12.55;81.06;101735.97;5043765;28;20086;-66
2021/06/23 04:53:30;;;;;;;27.13;12.43;;;;;;;12.57;81.15;101729.63;5061675;28;20074;-66
2021/06/23 04:55:57;;;;;;;24.92;12.38;;;;;;;12.58;80.67;101736.50;5043959;28;20044;-66
2021/06/23 04:58:26;;;;;;;27.20;12.23;;;;;;;12.55;80.87;101728.97;5042947;28;20128;-66
2021/06/23 05:01:08;;;;;;;22.15;12.57;;;;;;;12.51;81.10;101732.00;5047497;28;20036;-66
2021/06/23 05:03:41;;;;;;;23.45;13.07;;;;;;;12.49;81.41;101729.56;5065545;28;20032;-66
2021/06/23 05:06:06;;;;;;;29.15;13.15;;;;;;;12.43;81.37;101725.75;5059554;28;20039;-66
2021/06/23 05:08:32;;;;;;;23.60;11.82;;;;;;;12.49;81.35;101729.56;5061519;28;20390;-66
2021/06/23 05:10:57;;;;;;;24.65;13.60;;;;;;;12.58;81.65;101720.03;5044597;28;20065;-66
2021/06/23 05:13:24;;;;;;;22.98;13.75;;;;;;;12.64;81.42;101728.09;5062285;28;20044;-66
2021/06/23 05:15:51;;;;;;;26.40;12.38;;;;;;;12.57;81.24;101728.81;5061499;28;20047;-66
2021/06/23 05:18:17;;;;;;;22.02;12.50;;;;;;;12.65;80.93;101724.50;5045114;28;20032;-67
2021/06/23 05:20:43;;;;;;;19.92;11.20;;;;;;;12.65;81.21;101727.09;5046321;28;20036;-66
2021/06/23 05:23:09;;;;;;;27.95;12.27;;;;;;;12.71;80.48;101722.28;5062945;28;20543;-66
2021/06/23 05:25:34;;;;;;;28.30;12.45;;;;;;;12.66;81.02;101733.16;5064184;28;20040;-67
2021/06/23 05:28:00;;;;;;;30.75;12.02;;;;;;;12.73;80.31;101734.16;5063162;28;20036;-65
2021/06/23 05:30:26;;;;;;;22.55;12.02;;;;;;;12.82;79.50;101735.09;5063076;28;20025;-65
2021/06/23 05:32:53;;;;;;;31.00;11.18;;;;;;;12.71;79.83;101733.50;5066317;28;20032;-65
2021/06/23 05:35:19;;;;;;;25.55;12.02;;;;;;;12.71;80.36;101740.50;5065905;28;20059;-65
2021/06/23 05:37:45;;;;;;;26.65;12.55;;;;;;;12.68;80.58;101731.22;5063299;28;20048;-65
2021/06/23 05:40:11;;;;;;;27.35;12.63;;;;;;;12.66;80.62;101738.34;5059330;28;20041;-65
2021/06/23 05:42:37;;;;;;;25.95;12.63;;;;;;;12.76;79.88;101736.50;5064631;28;20190;-65
2021/06/23 05:45:03;;;;;;;31.23;14.30;;;;;;;12.76;80.15;101738.28;5063533;28;20032;-65
2021/06/23 05:47:29;;;;;;;24.92;11.95;;;;;;;12.87;80.61;101732.88;5063763;28;20039;-65
2021/06/23 05:49:55;;;;;;;23.65;12.48;;;;;;;12.78;80.00;101733.75;5063657;28;20376;-65
2021/06/23 05:52:20;;;;;;;26.25;11.10;;;;;;;12.81;79.91;101744.69;5056109;28;20041;-66
2021/06/23 05:54:45;;;;;;;30.35;13.70;;;;;;;12.86;80.04;101746.84;5050590;28;20067;-65
2021/06/23 05:57:11;;;;;;;24.17;12.45;;;;;;;12.95;79.63;101745.94;5063939;28;20048;-65
2021/06/23 05:59:37;;;;;;;27.27;11.68;;;;;;;12.92;79.70;101751.47;5067539;28;20028;-65
2021/06/23 06:02:03;;;;;;;23.65;12.18;;;;;;;13.01;79.95;101745.34;5045868;28;20043;-65
2021/06/23 06:04:28;;;;;;;20.15;11.05;;;;;;;13.03;79.28;101756.44;5066739;28;20044;-65
2021/06/23 06:06:53;;;;;;;26.30;11.68;;;;;;;12.98;79.26;101748.25;5047419;28;20029;-65
2021/06/23 06:09:19;;;;;;;26.50;11.18;;;;;;;12.99;79.00;101757.69;5066578;28;20460;-65
2021/06/23 06:11:44;;;;;;;23.63;11.05;;;;;;;13.04;78.85;101758.06;5068112;28;20063;-65
2021/06/23 06:14:10;;;;;;;29.42;12.43;;;;;;;13.11;79.19;101760.06;5066611;28;20533;-65
2021/06/23 06:16:35;;;;;;;21.63;12.10;;;;;;;13.13;78.79;101756.38;5068492;28;20052;-65
2021/06/23 06:19:01;;;;;;;25.25;11.35;;;;;;;13.10;78.57;101754.06;5067179;28;20043;-65
2021/06/23 06:21:26;;;;;;;20.88;10.85;;;;;;;13.13;78.78;101763.34;5068324;28;20032;-68
2021/06/23 06:23:52;;;;;;;22.52;11.07;;;;;;;13.19;78.62;101753.16;5065854;28;20052;-65
2021/06/23 06:26:19;;;;;;;20.10;11.55;;;;;;;13.31;78.02;101764.19;5065250;28;20036;-65
2021/06/23 06:28:44;;;;;;;28.63;12.02;;;;;;;13.30;78.09;101766.91;5062942;28;20107;-65
2021/06/23 06:31:10;;;;;;;26.10;11.80;;;;;;;13.31;77.64;101771.19;5061799;28;20170;-65
2021/06/23 06:33:36;;;;;;;26.30;11.50;;;;;;;13.42;77.48;101776.16;5065681;28;20508;-65
2021/06/23 06:36:02;;;;;;;24.75;10.68;;;;;;;13.29;77.73;101775.69;5068338;28;20028;-66
2021/06/23 06:38:27;;;;;;;26.25;11.55;;;;;;;13.32;77.34;101781.47;5048253;28;20032;-66
2021/06/23 06:40:53;;;;;;;21.38;9.80;;;;;;;13.32;78.17;101781.47;5059847;28;20040;-66
2021/06/23 06:43:18;;;;;;;21.10;11.20;;;;;;;13.40;78.13;101784.13;5050650;28;20090;-66
2021/06/23 06:45:46;;;;;;;19.95;9.80;;;;;;;13.40;77.58;101784.13;5067717;28;20666;-66
2021/06/23 06:48:12;;;;;;;19.50;9.50;;;;;;;13.43;77.63;101781.22;5048020;28;20508;-65
2021/06/23 06:50:37;;;;;;;23.55;10.68;;;;;;;13.52;78.03;101778.69;5067691;28;20032;-65
2021/06/23 06:53:03;;;;;;;14.93;9.57;;;;;;;13.57;77.55;101794.69;5064792;28;20102;-66
2021/06/23 06:55:28;;;;;;;28.05;10.52;;;;;;;13.59;77.02;101797.97;5064746;28;20075;-65
2021/06/23 06:57:56;;;;;;;21.95;9.82;;;;;;;13.61;77.21;101799.44;5068431;28;20028;-66
2021/06/23 07:00:22;;;;;;;21.65;9.88;;;;;;;13.64;77.25;101793.13;5066921;28;20059;-65
2021/06/23 07:02:48;;;;;;;19.88;9.93;;;;;;;13.69;76.58;101796.06;5064345;28;20036;-65
2021/06/23 07:05:13;;;;;;;24.90;9.20;;;;;;;13.73;75.50;101794.81;5045541;28;20028;-66
2021/06/23 07:07:39;;;;;;;21.30;8.70;;;;;;;13.66;76.08;101798.19;5065300;28;20032;-65
2021/06/23 07:10:06;;;;;;;30.23;9.80;;;;;;;13.61;76.92;101802.03;5045480;28;20502;-66
2021/06/23 07:12:31;;;;;;;54.38;25.48;;;;;;;13.70;75.83;101797.72;5067774;28;20043;-66
2021/06/23 07:14:57;;;;;;;25.45;10.65;;;;;;;13.79;76.12;101796.00;5063517;28;20453;-65
2021/06/23 07:17:23;;;;;;;20.83;9.18;;;;;;;13.77;75.79;101801.34;5063785;28;20463;-65
2021/06/23 07:19:48;;;;;;;23.70;9.73;;;;;;;13.85;75.50;101797.16;5067222;28;20159;-66
2021/06/23 07:22:13;;;;;;;18.45;8.45;;;;;;;13.81;75.41;101797.47;5061111;28;20036;-65
2021/06/23 07:24:39;;;;;;;24.25;9.90;;;;;;;13.79;75.31;101804.63;5065110;28;20087;-65
2021/06/23 07:27:05;;;;;;;19.98;8.75;;;;;;;13.96;74.85;101802.94;5065684;28;20504;-65
2021/06/23 07:29:30;;;;;;;14.05;7.88;;;;;;;13.92;75.14;101798.16;5057766;28;20040;-65
2021/06/23 07:32:02;;;;;;;22.20;8.93;;;;;;;13.99;74.91;101793.97;5063547;28;20079;-66
2021/06/23 07:37:04;;;;;;;22.00;9.18;;;;;;;14.15;74.44;101801.09;5062647;28;20036;-66
2021/06/23 07:39:30;;;;;;;;;;;;;;;14.10;74.42;101796.31;5063469;28;20056;-66
2021/06/23 07:41:56;;;;;;;19.05;8.50;;;;;;;14.21;74.45;101800.47;5061590;28;19962;-66
2021/06/23 07:44:38;;;;;;;18.65;8.55;;;;;;;14.12;74.13;101806.59;5049131;28;20036;-65
2021/06/23 07:47:13;;;;;;;17.33;8.10;;;;;;;14.08;73.89;101811.31;5059131;28;20041;-66
2021/06/23 07:49:41;;;;;;;14.45;7.18;;;;;;;14.12;74.07;101814.44;5039551;28;20044;-66
2021/06/23 08:03:15;;;;;;;18.67;8.45;;;;;;;14.31;73.88;101813.38;5067210;28;20393;-66
2021/06/23 08:11:22;;;;;;;21.92;8.75;;;;;;;14.44;74.05;101802.53;5056704;28;20128;-66
2021/06/23 08:13:48;;;;;;;19.92;8.48;;;;;;;14.57;75.06;101808.97;5051405;28;20040;-66
2021/06/23 08:16:15;;;;;;;17.90;8.30;;;;;;;14.67;74.30;101815.84;5053720;28;20390;-66
2021/06/23 08:18:40;;;;;;;25.38;9.57;;;;;;;14.64;73.84;101809.16;5065751;28;20036;-66
2021/06/23 08:21:06;;;;;;;16.63;8.25;;;;;;;14.53;74.05;101802.38;5059443;28;20051;-66
2021/06/23 08:23:32;;;;;;;22.50;8.90;;;;;;;14.54;74.79;101805.81;5064201;28;20528;-66
2021/06/23 08:25:57;;;;;;;19.38;8.52;;;;;;;14.62;73.30;101808.50;5060580;28;20051;-66
2021/06/23 08:28:23;;;;;;;19.15;8.05;;;;;;;14.56;73.57;101809.06;5060631;28;20028;-66
2021/06/23 08:30:48;;;;;;;12.23;7.82;;;;;;;14.69;74.15;101806.06;5063651;28;20505;-66
2021/06/23 08:33:14;;;;;;;20.48;9.25;;;;;;;14.82;73.30;101809.03;5063861;28;20040;-67
2021/06/23 08:35:39;;;;;;;17.48;8.63;;;;;;;14.81;73.18;101814.44;5066104;28;20280;-67
2021/06/23 08:38:05;;;;;;;19.60;8.68;;;;;;;14.75;73.74;101810.66;5064905;28;20062;-67
2021/06/23 08:40:30;;;;;;;22.08;10.75;;;;;;;14.97;73.80;101811.84;5047815;28;20049;-66
2021/06/23 08:42:56;;;;;;;21.63;9.65;;;;;;;14.95;72.58;101809.38;5060334;28;20132;-67
2021/06/23 08:45:21;;;;;;;18.00;8.50;;;;;;;14.85;72.66;101808.72;5046795;28;20392;-67
2021/06/23 08:47:49;;;;;;;22.90;9.48;;;;;;;14.82;72.10;101816.88;5065597;28;20060;-67
2021/06/23 08:50:20;;;;;;;20.77;9.52;;;;;;;15.04;72.87;101815.44;5064550;28;20023;-67
2021/06/23 08:52:46;;;;;;;16.40;8.35;;;;;;;15.07;72.20;101811.69;5064237;28;20040;-67
2021/06/23 08:55:18;;;;;;;23.52;8.63;;;;;;;15.22;72.08;101817.94;5062231;28;20032;-67
2021/06/23 08:57:45;;;;;;;22.70;10.13;;;;;;;15.41;71.19;101819.41;5064647;28;20086;-67
2021/06/23 09:00:11;;;;;;;18.10;9.05;;;;;;;15.43;69.12;101817.44;5065948;28;20199;-67
2021/06/23 09:02:36;;;;;;;16.00;8.30;;;;;;;15.55;68.90;101812.72;5063735;28;20052;-67
2021/06/23 09:05:07;;;;;;;20.92;8.45;;;;;;;15.45;69.03;101820.72;5065221;28;20039;-67
2021/06/23 09:07:37;;;;;;;18.60;8.38;;;;;;;15.49;69.76;101810.75;5065312;28;20082;-67
2021/06/23 09:10:22;;;;;;;25.02;8.60;;;;;;;15.60;68.91;101815.66;5065848;28;20029;-67
2021/06/23 09:13:08;;;;;;;22.20;8.10;;;;;;;15.61;68.81;101825.13;5062821;28;20024;-67
2021/06/23 09:15:54;;;;;;;15.40;7.68;;;;;;;15.62;67.98;101811.06;5048259;28;20090;-67
2021/06/23 09:18:22;;;;;;;24.08;7.43;;;;;;;15.60;68.25;101812.22;5043682;28;20085;-67
2021/06/23 09:20:51;;;;;;;18.40;7.72;;;;;;;15.61;69.35;101811.22;5056981;28;20032;-67
2021/06/23 09:23:18;;;;;;;18.58;7.65;;;;;;;15.69;68.19;101814.66;5049934;28;20541;-66
2021/06/23 09:25:47;;;;;;;18.88;7.80;;;;;;;15.66;68.11;101816.78;5057543;28;20497;-67
2021/06/23 09:28:15;;;;;;;18.38;7.95;;;;;;;15.64;67.59;101818.75;5063588;28;20024;-67
2021/06/23 09:30:45;;;;;;;17.58;8.55;;;;;;;15.67;67.26;101816.63;5063131;28;20032;-67
2021/06/23 09:33:18;;;;;;;17.55;7.22;;;;;;;15.80;67.52;101820.56;5058274;28;20037;-67
2021/06/23 09:35:45;;;;;;;;;;;;;;;15.77;66.72;101822.53;5068148;28;20131;-67
2021/06/23 09:38:29;;;;;;;23.98;8.80;;;;;;;15.76;67.06;101833.97;5062565;28;19908;-67
2021/06/23 09:40:55;;;;;;;20.30;8.95;;;;;;;15.76;68.23;101828.75;5057228;28;20087;-67
2021/06/23 09:43:20;;;;;;;17.42;8.18;;;;;;;15.79;68.13;101827.59;5062471;28;20024;-67
2021/06/23 09:45:53;;;;;;;17.65;7.93;;;;;;;15.73;67.95;101831.69;5065080;28;20040;-67
2021/06/23 09:48:18;;;;;;;21.10;8.55;;;;;;;15.64;67.00;101832.63;5062929;28;20036;-67
2021/06/23 09:50:44;;;;;;;22.05;8.57;;;;;;;15.64;67.95;101830.03;5046159;28;20039;-67
2021/06/23 09:53:13;;;;;;;17.30;7.95;;;;;;;15.75;67.37;101829.72;5062695;28;20456;-67
2021/06/23 09:55:48;;;;;;;12.98;6.75;;;;;;;15.81;66.35;101830.84;5062797;28;20044;-67
2021/06/23 09:58:23;;;;;;;17.85;8.10;;;;;;;15.69;66.81;101827.75;5064587;28;20040;-67
2021/06/23 10:01:02;;;;;;;24.27;8.00;;;;;;;15.70;67.50;101826.75;5062206;28;20029;-67
2021/06/23 10:03:29;;;;;;;24.25;7.68;;;;;;;15.85;67.36;101837.38;5065247;28;20348;-67
2021/06/23 10:05:56;;;;;;;17.80;6.97;;;;;;;15.82;67.25;101832.47;5063557;28;20098;-67
2021/06/23 10:08:26;;;;;;;17.10;7.25;;;;;;;15.81;67.65;101822.19;5059946;28;20029;-67
2021/06/23 10:10:52;;;;;;;16.70;7.93;;;;;;;15.85;66.85;101833.97;5065446;28;20608;-67
2021/06/23 10:13:18;;;;;;;24.30;7.53;;;;;;;15.92;66.07;101832.31;5062209;28;20067;-67
2021/06/23 10:15:44;;;;;;;16.30;7.38;;;;;;;16.03;65.71;101831.13;5062842;28;20052;-67
2021/06/23 10:18:10;;;;;;;21.85;7.45;;;;;;;15.99;66.25;101825.41;5065063;28;20525;-67
2021/06/23 10:20:36;;;;;;;13.73;6.47;;;;;;;16.13;66.53;101827.34;5062272;28;20043;-67
2021/06/23 10:23:05;;;;;;;17.40;7.13;;;;;;;16.24;66.21;101833.22;5065235;28;20032;-67
2021/06/23 10:25:32;;;;;;;17.95;6.43;;;;;;;16.24;65.98;101833.22;5059399;28;20044;-67
2021/06/23 10:27:59;;;;;;;19.58;8.15;;;;;;;16.25;66.15;101827.81;5059632;28;20114;-67
2021/06/23 10:30:30;;;;;;;20.08;6.38;;;;;;;16.38;65.27;101829.09;5063648;28;20033;-67
2021/06/23 10:32:56;;;;;;;13.95;6.20;;;;;;;16.52;64.63;101828.38;5044542;28;20189;-67
2021/06/23 10:35:22;;;;;;;15.68;5.82;;;;;;;16.48;64.70;101829.69;5063653;28;20028;-67
2021/06/23 10:37:49;;;;;;;13.70;6.78;;;;;;;16.53;64.08;101824.78;5062865;28;20546;-67
2021/06/23 10:40:16;;;;;;;16.58;6.85;;;;;;;16.47;64.27;101834.13;5059861;28;20074;-67
2021/06/23 10:42:41;;;;;;;16.85;7.20;;;;;;;16.50;64.92;101827.72;5064302;28;20485;-67
2021/06/23 10:45:07;;;;;;;20.30;6.97;;;;;;;16.50;63.95;101831.16;5066814;28;20032;-67
2021/06/23 10:47:37;;;;;;;18.60;6.43;;;;;;;16.54;64.30;101835.06;5068840;28;20468;-67
2021/06/23 10:50:07;;;;;;;12.13;6.40;;;;;;;16.62;64.06;101831.59;5068397;28;20036;-67
2021/06/23 10:52:36;;;;;;;24.27;7.63;;;;;;;16.62;63.73;101831.59;5065836;28;20036;-67
2021/06/23 10:55:13;;;;;;;19.10;7.40;;;;;;;16.62;62.65;101831.59;5044900;28;20036;-66
2021/06/23 10:57:39;;;;;;;17.33;7.70;;;;;;;16.63;63.17;101835.88;5067889;28;20041;-67
2021/06/23 11:00:10;;;;;;;18.48;7.50;;;;;;;16.68;63.54;101835.34;5068635;28;20127;-67
2021/06/23 11:02:39;;;;;;;17.42;7.03;;;;;;;16.81;64.34;101843.44;5062663;28;20036;-67
2021/06/23 11:05:15;;;;;;;18.95;7.65;;;;;;;16.80;62.95;101833.97;5065317;28;20033;-67
2021/06/23 11:07:49;;;;;;;12.15;7.30;;;;;;;16.86;62.64;101841.16;5047008;28;20036;-67
2021/06/23 11:10:15;;;;;;;16.45;6.90;;;;;;;16.97;63.31;101832.13;5067738;28;20028;-67
2021/06/23 11:12:44;;;;;;;19.83;7.45;;;;;;;17.07;63.60;101839.75;5068106;28;20097;-67
2021/06/23 11:15:11;;;;;;;15.02;6.85;;;;;;;17.18;63.78;101825.41;5062173;28;20036;-67
2021/06/23 11:17:37;;;;;;;12.07;6.13;;;;;;;17.20;63.83;101831.31;5065394;28;20095;-67
2021/06/23 11:20:04;;;;;;;14.02;6.70;;;;;;;17.33;63.33;101842.03;5064862;28;20059;-67
2021/06/23 11:22:35;;;;;;;15.10;6.72;;;;;;;17.35;60.97;101837.41;5065991;28;20110;-67
2021/06/23 11:25:23;;;;;;;16.63;7.28;;;;;;;17.17;61.96;101829.84;5050458;28;20032;-67
2021/06/23 11:28:10;;;;;;;13.18;6.35;;;;;;;17.29;62.11;101831.06;5065543;28;20032;-67
2021/06/23 11:31:03;;;;;;;21.40;6.70;;;;;;;17.45;61.65;101837.97;5065881;28;20488;-67
2021/06/23 11:33:29;;;;;;;22.52;8.55;;;;;;;17.36;61.86;101831.16;5065722;28;20036;-67
2021/06/23 11:36:00;;;;;;;13.95;6.90;;;;;;;17.37;61.17;101835.44;5047723;28;20418;-67
2021/06/23 11:38:27;;;;;;;17.55;6.55;;;;;;;17.47;61.13;101841.25;5066079;28;20036;-67
2021/06/23 11:40:54;;;;;;;27.50;12.82;;;;;;;17.35;61.40;101834.78;5062096;28;20383;-67